createdAt,value
2023-03-07T00:00:10.701Z,99672.81
2023-03-07T00:05:15.221Z,99663.25
2023-03-07T00:10:17.566Z,99668.34
2023-03-07T00:15:26.148Z,99674.16
2023-03-07T00:20:27.625Z,99672.47
2023-03-07T00:25:29.028Z,99672.44
2023-03-07T00:30:30.423Z,99682.69
2023-03-07T00:35:31.910Z,99673.41
2023-03-07T00:40:33.377Z,99674.31
2023-03-07T00:45:34.852Z,99671.75
2023-03-07T00:50:36.272Z,99666.78
2023-03-07T00:55:37.934Z,99665.09
2023-03-07T01:00:39.428Z,99655.78
2023-03-07T01:05:41.748Z,99661.81
2023-03-07T01:10:44.072Z,99648.22
2023-03-07T01:15:45.688Z,99648.25
2023-03-07T01:20:47.168Z,99648.34
2023-03-07T01:25:48.677Z,99627.06
2023-03-07T01:30:57.790Z,99633.75
2023-03-07T01:35:59.403Z,99620.94
2023-03-07T01:41:02.220Z,99622.56
2023-03-07T01:46:18.950Z,99622.59
2023-03-07T01:51:21.410Z,99609.75
2023-03-07T01:56:23.089Z,99607.22
2023-03-07T02:01:27.313Z,99600.34
2023-03-07T02:06:31.055Z,99593.50
2023-03-07T02:11:32.819Z,99585.81
2023-03-07T02:16:35.323Z,99584.19
2023-03-07T02:22:00.146Z,99581.53
2023-03-07T02:27:01.603Z,99588.34
2023-03-07T02:32:03.110Z,99579.72
2023-03-07T02:37:22.403Z,99583.97
2023-03-07T02:42:26.794Z,99588.94
2023-03-07T02:47:28.557Z,99578.56
2023-03-07T02:52:31.373Z,99579.31
2023-03-07T02:57:33.043Z,99575.00
2023-03-07T03:02:35.218Z,99581.78
2023-03-07T03:07:36.822Z,99580.03
2023-03-07T03:12:40.646Z,99580.06
2023-03-07T03:17:42.350Z,99576.59
2023-03-07T03:22:43.940Z,99577.47
2023-03-07T03:27:45.788Z,99565.53
2023-03-07T03:32:47.255Z,99560.38
2023-03-07T03:37:49.196Z,99556.16
2023-03-07T03:42:50.934Z,99546.00
2023-03-07T03:47:52.348Z,99544.25
2023-03-07T03:52:53.837Z,99538.31
2023-03-07T03:57:55.228Z,99542.63
2023-03-07T04:02:56.980Z,99542.56
2023-03-07T04:07:58.506Z,99541.81
2023-03-07T04:12:59.968Z,99540.09
2023-03-07T04:18:01.478Z,99535.75
2023-03-07T04:23:03.104Z,99532.31
2023-03-07T04:28:04.835Z,99527.09
2023-03-07T04:33:06.248Z,99515.97
2023-03-07T04:38:08.029Z,99510.66
2023-03-07T04:43:09.546Z,99507.22
2023-03-07T04:48:10.912Z,99507.09
2023-03-07T04:53:12.334Z,99507.13
2023-03-07T04:58:16.030Z,99496.88
2023-03-07T05:03:17.772Z,99492.50
2023-03-07T05:08:19.724Z,99487.44
2023-03-07T05:13:21.201Z,99488.22
2023-03-07T05:18:23.138Z,99483.03
2023-03-07T05:23:24.840Z,99489.84
2023-03-07T05:28:26.278Z,99480.44
2023-03-07T05:33:27.754Z,99475.22
2023-03-07T05:38:29.402Z,99485.22
2023-03-07T05:43:30.807Z,99486.66
2023-03-07T05:48:32.211Z,99480.50
2023-03-07T05:53:33.713Z,99502.53
2023-03-07T05:58:35.181Z,99494.84
2023-03-07T06:03:36.945Z,99503.31
2023-03-07T06:08:38.792Z,99502.38
2023-03-07T06:13:40.185Z,99519.22
2023-03-07T06:18:41.625Z,99508.91
2023-03-07T06:23:43.799Z,99512.69
2023-03-07T06:28:45.244Z,99512.84
2023-03-07T06:33:47.703Z,99526.53
2023-03-07T06:38:49.195Z,99530.38
2023-03-07T06:43:52.670Z,99529.28
2023-03-07T06:48:55.282Z,99529.09
2023-03-07T06:53:56.848Z,99542.72
2023-03-07T06:58:58.641Z,99542.06
2023-03-07T07:04:00.087Z,99558.16
2023-03-07T07:09:01.507Z,99562.72
2023-03-07T07:14:02.996Z,99563.41
2023-03-07T07:19:04.610Z,99568.72
2023-03-07T07:24:06.453Z,99560.22
2023-03-07T07:29:07.836Z,99549.50
2023-03-07T07:34:09.280Z,99551.63
2023-03-07T07:39:12.366Z,99553.34
2023-03-07T07:44:13.847Z,99555.13
2023-03-07T07:49:16.312Z,99557.28
2023-03-07T07:54:19.112Z,99556.44
2023-03-07T07:59:20.686Z,99558.94
2023-03-07T08:04:22.136Z,99577.31
2023-03-07T08:09:23.606Z,99580.66
2023-03-07T08:14:25.057Z,99579.16
2023-03-07T08:19:26.701Z,99592.06
2023-03-07T08:24:39.937Z,99595.28
2023-03-07T08:29:41.819Z,99590.53
2023-03-07T08:34:43.274Z,99599.47
2023-03-07T08:39:44.807Z,99591.66
2023-03-07T08:44:46.248Z,99589.09
2023-03-07T08:49:47.715Z,99599.94
2023-03-07T08:54:51.583Z,99588.78
2023-03-07T08:59:53.061Z,99597.69
2023-03-07T09:04:54.683Z,99593.81
2023-03-07T09:09:56.263Z,99592.75
2023-03-07T09:14:57.714Z,99584.75
2023-03-07T09:19:59.593Z,99588.25
2023-03-07T09:25:01.099Z,99588.47
2023-03-07T09:30:02.663Z,99586.28
2023-03-07T09:35:04.280Z,99587.09
2023-03-07T09:40:07.699Z,99583.25
2023-03-07T09:45:29.531Z,99577.16
2023-03-07T09:50:35.395Z,99590.19
2023-03-07T09:55:36.857Z,99587.16
2023-03-07T10:00:42.789Z,99579.44
2023-03-07T10:05:50.253Z,99589.94
2023-03-07T10:11:13.529Z,99590.13
2023-03-07T10:16:31.507Z,99587.97
2023-03-07T10:21:53.003Z,99601.13
2023-03-07T10:27:02.280Z,99592.69
2023-03-07T10:32:21.022Z,99595.63
2023-03-07T10:37:30.566Z,99591.97
2023-03-07T10:42:37.016Z,99586.97
2023-03-07T10:47:41.148Z,99594.69
2023-03-07T10:53:03.932Z,99583.94
2023-03-07T10:58:21.007Z,99596.34
2023-03-07T11:03:25.037Z,99593.75
2023-03-07T11:08:30.397Z,99594.09
2023-03-07T11:13:31.860Z,99591.63
2023-03-07T11:18:42.580Z,99596.06
2023-03-07T11:23:58.550Z,99600.09
2023-03-07T11:29:14.346Z,99601.75
2023-03-07T11:34:37.460Z,99590.09
2023-03-07T11:39:57.945Z,99600.06
2023-03-07T11:45:03.679Z,99595.75
2023-03-07T11:50:25.056Z,99602.47
2023-03-07T11:55:35.894Z,99601.63
2023-03-07T12:00:58.954Z,99597.31
2023-03-07T12:06:35.973Z,99593.28
2023-03-07T12:12:18.484Z,99600.41
2023-03-07T12:17:34.090Z,99613.84
2023-03-07T12:22:39.816Z,99622.94
2023-03-07T12:28:08.459Z,99637.63
2023-03-07T12:33:21.576Z,99631.94
2023-03-07T12:38:52.749Z,99632.81
2023-03-07T12:44:01.113Z,99637.78
2023-03-07T12:49:16.935Z,99641.31
2023-03-07T12:54:28.378Z,99647.47
2023-03-07T12:59:35.192Z,99636.16
2023-03-07T13:04:42.668Z,99633.94
2023-03-07T13:09:46.727Z,99640.34
2023-03-07T13:14:51.319Z,99632.91
2023-03-07T13:19:55.092Z,99628.00
2023-03-07T13:24:58.600Z,99632.13
2023-03-07T13:30:06.300Z,99639.19
2023-03-07T13:35:09.533Z,99649.53
2023-03-07T13:40:35.893Z,99650.97
2023-03-07T13:45:37.276Z,99649.41
2023-03-07T13:50:58.796Z,99640.25
2023-03-07T13:56:15.847Z,99647.78
2023-03-07T14:01:18.736Z,99652.28
2023-03-07T14:06:21.979Z,99653.00
2023-03-07T14:11:35.525Z,99659.34
2023-03-07T14:16:40.031Z,99673.75
2023-03-07T14:21:48.971Z,99672.91
2023-03-07T14:26:55.677Z,99677.66
2023-03-07T14:31:59.595Z,99675.63
2023-03-07T14:37:04.945Z,99677.06
2023-03-07T14:42:25.980Z,99684.69
2023-03-07T14:47:30.099Z,99678.50
2023-03-07T14:52:32.080Z,99679.94
2023-03-07T14:57:46.284Z,99685.88
2023-03-07T15:03:10.746Z,99685.28
2023-03-07T15:08:40.685Z,99668.41
2023-03-07T15:13:48.454Z,99679.16
2023-03-07T15:19:04.555Z,99677.13
2023-03-07T15:24:06.642Z,99684.25
2023-03-07T15:29:09.058Z,99678.00
2023-03-07T15:34:20.041Z,99682.88
2023-03-07T15:39:34.715Z,99677.16
2023-03-07T15:44:37.851Z,99684.00
2023-03-07T15:49:46.802Z,99683.06
2023-03-07T15:54:51.778Z,99686.09
2023-03-07T16:00:01.736Z,99684.63
2023-03-07T16:05:25.150Z,99680.41
2023-03-07T16:10:32.916Z,99688.69
2023-03-07T16:15:34.595Z,99683.19
2023-03-07T16:20:36.180Z,99688.47
2023-03-07T16:25:37.589Z,99691.75
2023-03-07T16:30:42.824Z,99693.47
2023-03-07T16:35:45.422Z,99696.44
2023-03-07T16:40:47.640Z,99705.97
2023-03-07T16:45:49.121Z,99715.06
2023-03-07T16:50:50.783Z,99710.56
2023-03-07T16:55:54.597Z,99722.44
2023-03-07T17:00:56.370Z,99719.03
2023-03-07T17:05:58.144Z,99734.47
2023-03-07T17:10:59.744Z,99733.28
2023-03-07T17:16:01.477Z,99739.19
2023-03-07T17:21:03.674Z,99743.47
2023-03-07T17:26:05.551Z,99746.84
2023-03-07T17:31:09.453Z,99753.41
2023-03-07T17:36:12.191Z,99753.50
2023-03-07T17:41:13.809Z,99761.72
2023-03-07T17:46:15.325Z,99767.72
2023-03-07T17:51:16.758Z,99775.19
2023-03-07T17:56:18.464Z,99782.91
2023-03-07T18:01:20.090Z,99798.06
2023-03-07T18:06:21.664Z,99806.69
2023-03-07T18:11:23.226Z,99798.03
2023-03-07T18:16:24.809Z,99803.97
2023-03-07T18:21:26.619Z,99816.72
2023-03-07T18:26:28.248Z,99839.53
2023-03-07T18:31:29.787Z,99838.56
2023-03-07T18:36:31.258Z,99841.06
2023-03-07T18:41:32.817Z,99847.88
2023-03-07T18:46:34.203Z,99844.28
2023-03-07T18:51:35.619Z,99839.81
2023-03-07T18:56:37.181Z,99838.94
2023-03-07T19:01:41.493Z,99842.97
2023-03-07T19:06:47.576Z,99844.59
2023-03-07T19:11:49.396Z,99845.34
2023-03-07T19:16:50.845Z,99839.22
2023-03-07T19:21:52.541Z,99845.22
2023-03-07T19:26:54.012Z,99846.63
2023-03-07T19:31:55.443Z,99852.44
2023-03-07T19:36:57.060Z,99855.84
2023-03-07T19:41:58.506Z,99862.50
2023-03-07T19:47:01.311Z,99862.50
2023-03-07T19:52:02.851Z,99873.34
2023-03-07T19:57:04.255Z,99875.75
2023-03-07T20:02:05.907Z,99879.56
2023-03-07T20:07:08.987Z,99879.31
2023-03-07T20:12:10.769Z,99874.91
2023-03-07T20:17:12.598Z,99877.59
2023-03-07T20:22:14.217Z,99881.97
2023-03-07T20:27:20.747Z,99881.03
2023-03-07T20:32:24.996Z,99876.84
2023-03-07T20:37:27.699Z,99879.13
2023-03-07T20:42:31.055Z,99891.34
2023-03-07T20:47:36.288Z,99882.84
2023-03-07T20:52:39.425Z,99893.41
2023-03-07T20:57:43.693Z,99892.69
2023-03-07T21:02:48.054Z,99889.13
2023-03-07T21:07:49.671Z,99893.16
2023-03-07T21:12:51.274Z,99893.75
2023-03-07T21:17:53.000Z,99894.34
2023-03-07T21:22:57.242Z,99891.53
2023-03-07T21:27:59.977Z,99892.28
2023-03-07T21:33:01.488Z,99901.25
2023-03-07T21:38:06.254Z,99902.22
2023-03-07T21:43:07.661Z,99908.88
2023-03-07T21:48:09.256Z,99913.22
2023-03-07T21:53:13.638Z,99911.28
2023-03-07T21:58:15.166Z,99919.69
2023-03-07T22:03:17.625Z,99914.47
2023-03-07T22:08:20.664Z,99917.59
2023-03-07T22:13:22.055Z,99926.16
2023-03-07T22:18:23.858Z,99930.56
2023-03-07T22:23:28.354Z,99922.75
2023-03-07T22:28:29.855Z,99924.72
2023-03-07T22:33:31.322Z,99934.66
2023-03-07T22:38:33.136Z,99942.09
2023-03-07T22:43:36.486Z,99942.91
2023-03-07T22:48:38.088Z,99929.25
2023-03-07T22:53:39.558Z,99932.25
2023-03-07T22:58:41.117Z,99936.47
2023-03-07T23:03:42.696Z,99942.97
2023-03-07T23:08:49.594Z,99938.97
2023-03-07T23:13:51.337Z,99939.56
2023-03-07T23:18:55.163Z,99949.91
2023-03-07T23:23:57.646Z,99944.34
2023-03-07T23:28:59.646Z,99934.78
2023-03-07T23:34:04.574Z,99935.75
2023-03-07T23:39:05.993Z,99923.31
2023-03-07T23:44:07.500Z,99927.34
2023-03-07T23:49:10.372Z,99922.09
2023-03-07T23:54:11.954Z,99915.59
2023-03-07T23:59:13.478Z,99912.59
